Time;durP1;ratioP1;P1;durP2;ratioP2;P2;SDS_P1;SDS_P2;PMS_P1;PMS_P2;Temp;Humidity;BMP_temperature;BMP_pressure;BME280_temperature;BME280_humidity;BME280_pressure;Samples;Min_cycle;Max_cycle;Signal;HPM_P1;HPM_P2
2023/07/23 00:00:30;;;;;;;5.90;4.10;;;14.10;77.10;;;;;;5039782;28;20486;-62
2023/07/23 00:02:56;;;;;;;5.40;4.20;;;14.20;77.50;;;;;;5042968;28;20206;-63
2023/07/23 00:05:23;;;;;;;6.73;4.17;;;14.10;78.20;;;;;;5040494;28;21109;-61
2023/07/23 00:07:50;;;;;;;5.50;4.23;;;14.10;78.90;;;;;;5042293;28;20695;-60
2023/07/23 00:10:15;;;;;;;6.77;4.50;;;14.10;79.10;;;;;;5033063;28;20485;-62
2023/07/23 00:12:41;;;;;;;6.47;4.50;;;14.10;79.70;;;;;;5043024;28;20461;-60
2023/07/23 00:15:07;;;;;;;5.37;4.23;;;14.10;80.20;;;;;;5042618;28;20221;-61
2023/07/23 00:17:33;;;;;;;6.40;4.10;;;14.10;81.60;;;;;;5041536;28;20285;-60
2023/07/23 00:19:58;;;;;;;9.40;5.03;;;14.00;82.20;;;;;;5041922;28;20871;-61
2023/07/23 00:22:25;;;;;;;9.03;4.37;;;14.00;83.10;;;;;;5037880;28;20645;-63
2023/07/23 00:24:56;;;;;;;8.03;4.97;;;14.00;83.50;;;;;;5043993;28;20258;-61
2023/07/23 00:27:22;;;;;;;5.93;4.20;;;13.90;83.60;;;;;;5040489;28;20548;-61
2023/07/23 00:29:48;;;;;;;5.70;3.97;;;13.90;83.80;;;;;;5039409;28;20429;-61
2023/07/23 00:32:13;;;;;;;6.63;4.30;;;13.90;84.00;;;;;;5039297;28;20994;-62
2023/07/23 00:34:39;;;;;;;8.67;4.20;;;13.90;84.50;;;;;;5040017;28;20246;-60
2023/07/23 00:37:05;;;;;;;5.40;4.43;;;13.80;85.70;;;;;;5034746;28;20198;-60
2023/07/23 00:39:30;;;;;;;7.20;4.57;;;13.80;86.50;;;;;;5038456;28;20582;-61
2023/07/23 00:41:57;;;;;;;5.83;4.53;;;13.80;86.50;;;;;;5040943;28;20184;-61
2023/07/23 00:44:22;;;;;;;7.57;4.23;;;13.80;87.20;;;;;;5045486;28;20682;-60
2023/07/23 00:46:48;;;;;;;6.80;4.10;;;13.70;87.70;;;;;;5040183;28;20457;-59
2023/07/23 00:49:14;;;;;;;5.20;4.60;;;13.70;88.70;;;;;;5037751;28;20223;-61
2023/07/23 00:51:40;;;;;;;6.80;4.03;;;13.70;89.00;;;;;;5038003;28;20252;-61
2023/07/23 00:54:06;;;;;;;8.60;5.00;;;13.70;89.20;;;;;;5040593;28;20167;-61
2023/07/23 00:56:37;;;;;;;9.40;4.50;;;13.70;89.40;;;;;;5039944;28;20487;-60
2023/07/23 00:59:02;;;;;;;17.33;4.93;;;13.60;89.50;;;;;;5042358;28;20487;-59
2023/07/23 01:01:30;;;;;;;9.33;5.03;;;13.60;89.80;;;;;;5044894;28;20786;-61
2023/07/23 01:03:55;;;;;;;6.10;4.27;;;13.60;90.00;;;;;;5038557;28;20198;-61
2023/07/23 01:06:22;;;;;;;5.90;4.43;;;13.60;90.10;;;;;;5037551;28;20427;-59
2023/07/23 01:08:49;;;;;;;5.77;4.50;;;13.50;90.20;;;;;;5041006;28;20305;-59
2023/07/23 01:11:15;;;;;;;9.27;4.50;;;13.40;90.90;;;;;;5038411;28;20472;-60
2023/07/23 01:13:42;;;;;;;5.03;4.07;;;13.40;91.70;;;;;;5034993;28;20426;-61
2023/07/23 01:16:10;;;;;;;6.03;4.37;;;13.40;92.20;;;;;;5037825;28;20793;-61
2023/07/23 01:18:37;;;;;;;5.03;4.00;;;13.30;92.80;;;;;;5031629;28;20500;-60
2023/07/23 01:21:03;;;;;;;6.17;4.20;;;13.30;93.40;;;;;;5039099;28;20473;-59
2023/07/23 01:23:28;;;;;;;6.43;4.43;;;13.30;93.60;;;;;;5042035;28;20417;-60
2023/07/23 01:25:54;;;;;;;5.50;4.53;;;13.20;93.40;;;;;;5038337;28;20452;-60
2023/07/23 01:28:20;;;;;;;8.97;5.07;;;13.20;93.20;;;;;;5036858;28;20277;-60
2023/07/23 01:30:45;;;;;;;7.63;4.50;;;13.20;93.30;;;;;;5033668;28;20693;-60
2023/07/23 01:33:12;;;;;;;6.37;5.10;;;13.20;92.80;;;;;;5036113;28;20186;-60
2023/07/23 01:35:38;;;;;;;5.40;3.60;;;13.20;93.20;;;;;;5039921;28;20286;-60
2023/07/23 01:38:03;;;;;;;7.50;5.10;;;13.10;93.40;;;;;;5033612;28;21029;-60
2023/07/23 01:40:29;;;;;;;7.07;4.70;;;13.10;93.50;;;;;;5040954;28;20797;-61
2023/07/23 01:42:56;;;;;;;6.50;4.70;;;13.10;93.80;;;;;;5036284;28;20183;-61
2023/07/23 01:45:22;;;;;;;7.53;4.33;;;13.10;94.50;;;;;;5042462;28;20434;-59
2023/07/23 01:47:47;;;;;;;6.87;5.07;;;13.00;94.40;;;;;;5033838;28;21193;-59
2023/07/23 01:50:13;;;;;;;7.30;4.60;;;13.00;95.00;;;;;;5041010;28;20233;-61
2023/07/23 01:52:38;;;;;;;6.17;5.10;;;13.00;95.30;;;;;;5042849;28;20198;-60
2023/07/23 01:55:05;;;;;;;5.90;4.53;;;12.90;95.70;;;;;;5039014;28;20221;-60
2023/07/23 01:57:30;;;;;;;6.67;4.90;;;12.90;96.30;;;;;;5030781;28;20955;-59
2023/07/23 01:59:56;;;;;;;5.20;4.70;;;12.90;96.70;;;;;;5036051;28;20434;-61
2023/07/23 02:02:21;;;;;;;8.13;5.13;;;12.80;97.00;;;;;;5034685;28;20221;-60
2023/07/23 02:04:47;;;;;;;9.03;4.80;;;12.80;96.90;;;;;;5038000;28;20668;-60
2023/07/23 02:07:14;;;;;;;8.10;5.23;;;12.80;97.10;;;;;;5036886;28;20203;-60
2023/07/23 02:09:40;;;;;;;5.80;4.40;;;12.80;97.60;;;;;;5028947;28;20191;-59
2023/07/23 02:12:05;;;;;;;7.20;4.17;;;12.70;98.00;;;;;;5034767;28;21081;-60
2023/07/23 02:14:31;;;;;;;5.30;4.60;;;12.70;98.30;;;;;;5038111;28;20179;-59
2023/07/23 02:16:57;;;;;;;5.37;4.80;;;12.70;98.20;;;;;;5043543;28;20286;-60
2023/07/23 02:19:22;;;;;;;9.77;4.90;;;12.70;98.30;;;;;;5036767;28;20196;-60
2023/07/23 02:21:48;;;;;;;6.13;3.80;;;12.70;98.00;;;;;;5033535;28;20198;-60
2023/07/23 02:24:13;;;;;;;11.40;5.03;;;12.60;98.90;;;;;;5030501;28;20240;-60
2023/07/23 02:26:39;;;;;;;5.97;4.57;;;12.60;98.70;;;;;;5036654;28;20207;-61
2023/07/23 02:29:04;;;;;;;6.70;4.60;;;12.60;98.40;;;;;;5040192;28;20203;-60
2023/07/23 02:31:30;;;;;;;5.87;4.30;;;12.50;98.40;;;;;;5037711;28;20294;-61
2023/07/23 02:33:56;;;;;;;13.03;4.40;;;12.50;99.20;;;;;;5033591;28;20179;-61
2023/07/23 02:36:21;;;;;;;5.67;4.53;;;12.50;99.60;;;;;;5039494;28;20183;-60
2023/07/23 02:38:47;;;;;;;10.43;5.20;;;12.40;99.60;;;;;;5035703;28;20237;-61
2023/07/23 02:41:12;;;;;;;5.70;4.50;;;12.40;99.70;;;;;;5036484;28;20290;-60
2023/07/23 02:43:38;;;;;;;9.30;5.37;;;12.40;99.90;;;;;;5036250;28;20179;-60
2023/07/23 02:46:04;;;;;;;5.67;4.40;;;12.40;99.90;;;;;;5038979;28;20190;-60
2023/07/23 02:48:29;;;;;;;6.03;4.60;;;12.30;99.90;;;;;;5039387;28;20241;-60
2023/07/23 02:50:55;;;;;;;7.10;4.47;;;12.30;99.90;;;;;;5036385;28;20184;-60
2023/07/23 02:53:20;;;;;;;7.80;4.30;;;12.30;99.90;;;;;;5040392;28;20747;-60
2023/07/23 02:55:46;;;;;;;5.00;4.20;;;12.30;99.90;;;;;;5042018;28;20332;-60
2023/07/23 02:58:12;;;;;;;5.67;4.10;;;12.30;99.90;;;;;;5045541;28;20198;-60
2023/07/23 03:00:39;;;;;;;5.90;4.23;;;12.30;99.90;;;;;;5032466;28;20183;-58
2023/07/23 03:03:07;;;;;;;6.10;4.13;;;12.30;99.90;;;;;;5043044;28;20203;-60
2023/07/23 03:05:37;;;;;;;7.20;4.27;;;12.20;99.90;;;;;;5042786;28;20508;-60
2023/07/23 03:08:03;;;;;;;5.43;4.50;;;12.30;99.90;;;;;;5042944;28;21015;-59
2023/07/23 03:10:31;;;;;;;6.63;4.87;;;12.30;99.90;;;;;;5038062;28;20433;-60
2023/07/23 03:12:57;;;;;;;6.07;4.43;;;12.20;99.90;;;;;;5035804;28;20535;-60
2023/07/23 03:15:23;;;;;;;8.20;5.07;;;12.20;99.90;;;;;;5044687;28;20460;-62
2023/07/23 03:17:50;;;;;;;4.50;4.00;;;12.20;99.90;;;;;;5043897;28;20191;-60
2023/07/23 03:20:17;;;;;;;6.97;4.47;;;12.20;99.90;;;;;;5044740;28;20421;-60
2023/07/23 03:22:43;;;;;;;7.73;4.37;;;12.20;99.90;;;;;;5041531;28;20437;-60
2023/07/23 03:25:09;;;;;;;9.97;4.63;;;12.20;99.90;;;;;;5035348;28;20449;-60
2023/07/23 03:27:34;;;;;;;6.93;4.17;;;12.20;99.90;;;;;;5038458;28;21050;-60
2023/07/23 03:30:00;;;;;;;6.13;4.70;;;12.20;99.90;;;;;;5037056;28;20818;-60
2023/07/23 03:32:26;;;;;;;5.70;4.57;;;12.10;99.90;;;;;;5037943;28;20199;-61
2023/07/23 03:34:52;;;;;;;6.43;4.63;;;12.10;99.90;;;;;;5041486;28;20484;-60
2023/07/23 03:37:17;;;;;;;5.43;3.97;;;12.10;99.90;;;;;;5035154;28;20279;-60
2023/07/23 03:39:43;;;;;;;7.37;4.60;;;12.10;99.90;;;;;;5036220;28;20284;-60
2023/07/23 03:42:08;;;;;;;7.63;3.63;;;12.10;99.90;;;;;;5038153;28;20199;-61
2023/07/23 03:44:34;;;;;;;7.27;4.30;;;12.10;99.90;;;;;;5042628;28;20182;-60
2023/07/23 03:47:09;;;;;;;5.23;4.10;;;12.10;99.90;;;;;;5037946;28;20180;-61
2023/07/23 03:49:35;;;;;;;10.57;4.50;;;12.10;99.90;;;;;;5040508;28;20187;-60
2023/07/23 03:52:01;;;;;;;10.30;3.77;;;12.10;99.90;;;;;;5042004;28;20465;-59
2023/07/23 03:54:26;;;;;;;8.80;4.30;;;12.00;99.90;;;;;;5039249;28;20202;-59
2023/07/23 03:56:53;;;;;;;10.33;4.60;;;12.10;99.90;;;;;;5040008;28;20218;-60
2023/07/23 03:59:18;;;;;;;8.80;4.10;;;12.00;99.90;;;;;;5043420;28;20222;-60
2023/07/23 04:01:44;;;;;;;5.80;5.00;;;12.00;99.90;;;;;;5036013;28;21000;-59
2023/07/23 04:04:10;;;;;;;5.97;4.20;;;12.00;99.90;;;;;;5039458;28;20187;-60
2023/07/23 04:06:35;;;;;;;6.23;4.73;;;12.00;99.90;;;;;;5039703;28;20989;-61
2023/07/23 04:09:01;;;;;;;5.80;4.30;;;12.00;99.90;;;;;;5042969;28;20833;-60
2023/07/23 04:11:26;;;;;;;5.73;4.40;;;11.90;99.90;;;;;;5042838;28;20233;-60
2023/07/23 04:13:52;;;;;;;6.03;4.50;;;11.90;99.90;;;;;;5040012;28;20187;-61
2023/07/23 04:16:17;;;;;;;10.10;4.50;;;11.90;99.90;;;;;;5044030;28;20252;-59
2023/07/23 04:18:53;;;;;;;10.77;4.67;;;11.90;99.90;;;;;;5041052;28;20208;-60
2023/07/23 04:21:19;;;;;;;5.97;4.33;;;11.90;99.90;;;;;;5039603;28;20187;-60
2023/07/23 04:23:46;;;;;;;7.13;4.90;;;11.90;99.90;;;;;;5038730;28;20775;-60
2023/07/23 04:26:12;;;;;;;12.90;5.03;;;11.90;99.90;;;;;;5042131;28;20433;-61
2023/07/23 04:28:38;;;;;;;6.27;4.50;;;11.90;99.90;;;;;;5038837;28;20441;-60
2023/07/23 04:31:04;;;;;;;7.97;5.07;;;11.90;99.90;;;;;;5037467;28;20417;-61
2023/07/23 04:33:29;;;;;;;6.57;4.87;;;11.90;99.90;;;;;;5033038;28;20321;-61
2023/07/23 04:35:55;;;;;;;8.40;4.90;;;11.90;99.90;;;;;;5039543;28;20180;-59
2023/07/23 04:38:20;;;;;;;6.00;4.60;;;12.00;99.90;;;;;;5044948;28;20636;-59
2023/07/23 04:40:49;;;;;;;6.27;4.60;;;12.00;99.90;;;;;;5036027;28;20180;-59
2023/07/23 04:43:14;;;;;;;4.97;4.00;;;12.00;99.90;;;;;;5045943;28;20550;-60
2023/07/23 04:45:41;;;;;;;8.80;5.30;;;12.00;99.90;;;;;;5040076;28;20977;-60
2023/07/23 04:48:07;;;;;;;7.60;4.23;;;12.00;99.90;;;;;;5035634;28;20291;-60
2023/07/23 04:50:32;;;;;;;9.00;4.83;;;12.10;99.90;;;;;;5033788;28;20541;-60
2023/07/23 04:52:58;;;;;;;4.97;3.70;;;12.10;99.90;;;;;;5039169;28;20560;-61
2023/07/23 04:55:25;;;;;;;6.63;4.50;;;12.20;99.90;;;;;;5042567;28;20214;-62
2023/07/23 04:57:51;;;;;;;5.63;4.27;;;12.20;99.90;;;;;;5034725;28;20199;-59
2023/07/23 05:00:17;;;;;;;6.63;4.63;;;12.20;99.90;;;;;;5036463;28;20756;-59
2023/07/23 05:02:42;;;;;;;6.10;4.50;;;12.20;99.90;;;;;;5041438;28;20210;-61
2023/07/23 05:05:08;;;;;;;6.67;4.10;;;12.30;99.90;;;;;;5036119;28;20195;-59
2023/07/23 05:07:34;;;;;;;5.37;3.93;;;12.40;99.90;;;;;;5036168;28;20270;-60
2023/07/23 05:09:59;;;;;;;5.87;4.13;;;12.50;99.90;;;;;;5039148;28;20598;-60
2023/07/23 05:12:26;;;;;;;6.80;4.20;;;12.60;99.90;;;;;;5043318;28;20234;-61
2023/07/23 05:14:51;;;;;;;6.30;4.53;;;12.60;99.90;;;;;;5041791;28;20467;-61
2023/07/23 05:17:17;;;;;;;5.67;4.60;;;12.70;99.90;;;;;;5026433;28;20607;-60
2023/07/23 05:19:43;;;;;;;8.57;4.33;;;12.80;99.90;;;;;;5017778;28;20597;-61
2023/07/23 05:22:08;;;;;;;6.33;4.70;;;12.90;99.90;;;;;;5036043;28;20191;-62
2023/07/23 05:24:34;;;;;;;8.07;4.53;;;13.00;99.90;;;;;;5019861;28;20682;-61
2023/07/23 05:26:59;;;;;;;9.00;4.37;;;13.10;99.90;;;;;;5029888;28;20203;-60
2023/07/23 05:29:25;;;;;;;6.60;4.80;;;13.20;99.90;;;;;;5038942;28;20197;-59
2023/07/23 05:31:50;;;;;;;5.10;3.90;;;13.20;99.90;;;;;;5033850;28;20698;-62
2023/07/23 05:34:16;;;;;;;6.03;4.67;;;13.30;99.90;;;;;;5023736;28;20183;-59
2023/07/23 05:36:42;;;;;;;5.17;4.47;;;13.40;99.10;;;;;;5022594;28;20188;-57
2023/07/23 05:39:11;;;;;;;7.10;4.50;;;13.40;98.80;;;;;;5034767;28;20211;-56
2023/07/23 05:41:36;;;;;;;9.17;4.17;;;13.50;98.80;;;;;;5027209;28;20521;-58
2023/07/23 05:44:02;;;;;;;7.43;4.20;;;13.60;98.60;;;;;;5027544;28;20450;-59
2023/07/23 05:46:28;;;;;;;6.47;4.70;;;13.70;98.90;;;;;;5026341;28;20206;-57
2023/07/23 05:48:53;;;;;;;7.13;4.90;;;13.80;99.60;;;;;;5034440;28;20648;-61
2023/07/23 05:51:19;;;;;;;5.43;4.60;;;13.90;99.10;;;;;;5031241;28;20250;-61
2023/07/23 05:53:44;;;;;;;7.83;4.80;;;14.00;98.20;;;;;;5028895;28;20179;-62
2023/07/23 05:56:10;;;;;;;6.57;4.63;;;14.10;98.10;;;;;;5037127;28;20180;-62
2023/07/23 05:58:36;;;;;;;8.47;5.37;;;14.30;97.10;;;;;;5035773;28;20191;-61
2023/07/23 06:01:03;;;;;;;7.00;4.90;;;14.40;95.70;;;;;;5040584;28;20270;-63
2023/07/23 06:03:28;;;;;;;8.40;5.20;;;14.60;95.00;;;;;;5028624;28;20186;-61
2023/07/23 06:05:54;;;;;;;7.23;4.67;;;14.70;94.00;;;;;;5031599;28;20438;-60
2023/07/23 06:08:19;;;;;;;11.27;4.43;;;14.80;92.80;;;;;;5033087;28;20290;-61
2023/07/23 06:10:45;;;;;;;6.47;4.90;;;14.90;93.00;;;;;;5029561;28;20180;-61
2023/07/23 06:13:10;;;;;;;6.90;4.30;;;15.00;93.20;;;;;;5033300;28;20298;-62
2023/07/23 06:15:36;;;;;;;7.00;4.30;;;15.10;91.70;;;;;;5030227;28;20175;-62
2023/07/23 06:18:02;;;;;;;4.97;4.40;;;15.30;92.70;;;;;;5030275;28;20251;-63
2023/07/23 06:20:27;;;;;;;6.93;4.90;;;15.50;91.90;;;;;;5030924;28;20179;-62
2023/07/23 06:22:54;;;;;;;8.03;4.90;;;15.60;92.50;;;;;;5028163;28;20679;-62
2023/07/23 06:25:20;;;;;;;7.40;5.20;;;15.80;91.80;;;;;;5024630;28;20723;-59
2023/07/23 06:27:45;;;;;;;5.80;4.47;;;15.90;90.40;;;;;;5011248;28;20458;-61
2023/07/23 06:30:11;;;;;;;11.83;5.07;;;16.00;88.00;;;;;;5025264;28;20658;-61
2023/07/23 06:32:37;;;;;;;5.43;4.40;;;16.00;86.70;;;;;;5026103;28;20230;-61
2023/07/23 06:35:04;;;;;;;6.93;4.33;;;16.10;89.90;;;;;;5043516;28;20179;-62
2023/07/23 06:37:30;;;;;;;4.90;3.77;;;16.10;91.30;;;;;;5034238;28;20217;-63
2023/07/23 06:39:56;;;;;;;6.80;4.40;;;16.20;90.00;;;;;;5038384;28;20480;-62
2023/07/23 06:42:21;;;;;;;6.80;4.63;;;16.30;91.10;;;;;;5031467;28;20199;-61
2023/07/23 06:44:47;;;;;;;5.70;4.50;;;16.40;91.70;;;;;;5039551;28;20809;-62
2023/07/23 06:47:13;;;;;;;5.97;3.83;;;16.50;91.90;;;;;;5034485;28;20203;-62
2023/07/23 06:49:39;;;;;;;6.77;4.90;;;16.50;92.20;;;;;;5043436;28;20182;-62
2023/07/23 06:52:05;;;;;;;4.20;3.73;;;16.60;93.10;;;;;;5036011;28;20462;-62
2023/07/23 06:54:32;;;;;;;6.20;3.97;;;16.70;92.90;;;;;;5040024;28;20240;-61
2023/07/23 06:56:58;;;;;;;5.03;3.80;;;16.70;92.80;;;;;;5043135;28;20465;-62
2023/07/23 06:59:23;;;;;;;7.40;4.30;;;16.80;91.00;;;;;;5040087;28;20449;-62
2023/07/23 07:01:50;;;;;;;4.60;3.63;;;16.90;90.40;;;;;;5035049;28;20274;-61
2023/07/23 07:04:16;;;;;;;4.30;3.33;;;16.90;86.00;;;;;;5039664;28;20287;-61
2023/07/23 07:06:42;;;;;;;4.03;3.43;;;17.00;79.80;;;;;;5041261;28;20429;-62
2023/07/23 07:09:08;;;;;;;5.57;3.70;;;17.10;78.10;;;;;;5041815;28;20203;-62
2023/07/23 07:11:34;;;;;;;5.10;4.00;;;17.30;76.80;;;;;;5030392;28;20527;-62
2023/07/23 07:13:59;;;;;;;6.27;3.77;;;17.40;76.80;;;;;;5038098;28;20274;-62
2023/07/23 07:16:25;;;;;;;4.33;3.83;;;17.70;75.50;;;;;;5037812;28;20207;-61
2023/07/23 07:18:52;;;;;;;6.40;3.70;;;17.90;73.70;;;;;;5038080;28;20207;-61
2023/07/23 07:21:18;;;;;;;8.43;4.20;;;18.10;69.30;;;;;;5030409;28;20525;-60
2023/07/23 07:23:43;;;;;;;6.07;4.27;;;18.30;67.40;;;;;;5033389;28;20449;-61
2023/07/23 07:26:09;;;;;;;7.03;3.80;;;18.50;67.60;;;;;;5036460;28;20194;-61
2023/07/23 07:28:35;;;;;;;7.00;3.60;;;18.70;66.30;;;;;;5040286;28;20211;-60
2023/07/23 07:31:01;;;;;;;7.43;3.50;;;18.90;63.50;;;;;;5033953;28;20184;-61
2023/07/23 07:33:28;;;;;;;4.80;2.80;;;19.00;62.00;;;;;;5041407;28;20261;-61
2023/07/23 07:35:58;;;;;;;3.20;2.70;;;19.10;59.70;;;;;;5040962;28;20624;-61
2023/07/23 07:38:25;;;;;;;4.50;3.27;;;19.30;59.60;;;;;;5035416;28;20507;-61
2023/07/23 07:40:51;;;;;;;5.93;3.10;;;19.40;59.00;;;;;;5037268;28;20436;-61
2023/07/23 07:43:17;;;;;;;5.13;3.27;;;19.60;59.10;;;;;;5044535;28;20494;-61
2023/07/23 07:45:48;;;;;;;4.50;3.37;;;19.70;58.30;;;;;;5037878;28;20422;-63
2023/07/23 07:48:13;;;;;;;3.00;2.70;;;19.80;57.70;;;;;;5040143;28;20457;-63
2023/07/23 07:50:39;;;;;;;4.70;2.90;;;19.90;57.70;;;;;;5041780;28;20444;-63
2023/07/23 07:53:04;;;;;;;5.87;3.20;;;20.00;56.40;;;;;;5039120;28;20738;-63
2023/07/23 07:55:30;;;;;;;3.33;3.03;;;20.10;56.10;;;;;;5039733;28;20186;-63
2023/07/23 07:57:56;;;;;;;3.83;3.47;;;20.20;56.90;;;;;;5039488;28;20200;-62
2023/07/23 08:00:22;;;;;;;3.60;3.10;;;20.30;57.00;;;;;;5037774;28;20172;-62
2023/07/23 08:02:47;;;;;;;4.00;2.77;;;20.50;56.80;;;;;;5039766;28;20712;-61
2023/07/23 08:05:14;;;;;;;3.07;2.60;;;20.60;55.80;;;;;;5047804;28;20183;-62
2023/07/23 08:07:40;;;;;;;4.30;2.67;;;20.80;56.00;;;;;;5040371;28;20227;-62
2023/07/23 08:10:07;;;;;;;5.40;2.53;;;20.80;55.90;;;;;;5040411;28;20489;-61
2023/07/23 08:12:33;;;;;;;3.80;2.50;;;20.90;55.10;;;;;;5037627;28;21152;-61
2023/07/23 08:15:00;;;;;;;3.20;2.40;;;21.10;54.80;;;;;;5043663;28;20464;-62
2023/07/23 08:17:26;;;;;;;4.00;3.20;;;21.20;53.90;;;;;;5041425;28;20841;-62
2023/07/23 08:19:52;;;;;;;3.70;2.40;;;21.30;54.20;;;;;;5039898;28;20841;-62
2023/07/23 08:22:17;;;;;;;2.80;2.30;;;21.40;54.10;;;;;;5039756;28;20471;-62
2023/07/23 08:24:43;;;;;;;5.20;2.40;;;21.60;53.80;;;;;;5045710;28;20191;-62
2023/07/23 08:27:11;;;;;;;4.53;2.30;;;21.70;53.20;;;;;;5046122;28;20222;-62
2023/07/23 08:29:42;;;;;;;3.33;2.40;;;21.80;53.50;;;;;;5037640;28;20184;-62
2023/07/23 08:32:09;;;;;;;3.73;2.80;;;21.90;53.60;;;;;;5035835;28;20490;-62
2023/07/23 08:34:36;;;;;;;4.77;2.93;;;22.00;53.00;;;;;;5044490;28;20447;-62
2023/07/23 08:37:03;;;;;;;3.13;2.33;;;22.00;52.80;;;;;;5041811;28;20476;-61
2023/07/23 08:39:29;;;;;;;5.40;3.30;;;22.00;53.00;;;;;;5039565;28;20511;-63
2023/07/23 08:42:14;;;;;;;4.20;3.10;;;22.10;52.70;;;;;;5037289;28;21057;-63
2023/07/23 08:44:54;;;;;;;4.37;2.80;;;22.20;53.30;;;;;;5042269;28;20175;-62
2023/07/23 08:47:21;;;;;;;4.53;3.07;;;22.30;53.00;;;;;;5038832;28;20445;-61
2023/07/23 08:49:48;;;;;;;2.73;2.40;;;22.20;53.20;;;;;;5033773;28;20452;-62
2023/07/23 08:52:15;;;;;;;3.77;2.70;;;22.20;53.20;;;;;;5041344;28;20488;-62
2023/07/23 08:54:41;;;;;;;2.50;2.30;;;22.40;53.50;;;;;;5039115;28;20422;-62
2023/07/23 08:57:08;;;;;;;4.87;3.00;;;22.50;52.70;;;;;;5044786;28;20533;-62
2023/07/23 08:59:35;;;;;;;6.97;2.50;;;22.60;52.20;;;;;;5038231;28;20433;-62
2023/07/23 09:02:02;;;;;;;3.80;2.63;;;22.70;52.60;;;;;;5038192;28;20437;-62
2023/07/23 09:04:28;;;;;;;4.47;2.03;;;22.80;53.20;;;;;;5035118;28;20919;-62
2023/07/23 09:06:57;;;;;;;3.07;2.60;;;22.90;53.00;;;;;;5035396;28;20470;-61
2023/07/23 09:09:24;;;;;;;5.37;2.60;;;23.10;52.30;;;;;;5043554;28;20275;-61
2023/07/23 09:11:49;;;;;;;3.23;2.87;;;23.20;52.30;;;;;;5046238;28;20465;-62
2023/07/23 09:14:16;;;;;;;2.73;2.33;;;23.20;51.70;;;;;;5041693;28;20429;-63
2023/07/23 09:16:46;;;;;;;3.10;2.60;;;23.30;52.20;;;;;;5036844;28;20191;-62
2023/07/23 09:19:20;;;;;;;8.57;2.80;;;23.40;51.80;;;;;;5041014;28;20434;-61
2023/07/23 09:21:46;;;;;;;7.40;2.60;;;23.50;51.60;;;;;;5037229;28;20437;-62
2023/07/23 09:24:16;;;;;;;3.90;2.73;;;23.60;51.10;;;;;;5044102;28;20917;-62
2023/07/23 09:26:42;;;;;;;3.70;2.77;;;23.50;50.60;;;;;;5041990;28;20203;-63
2023/07/23 09:29:10;;;;;;;4.20;2.80;;;23.60;51.50;;;;;;5035785;28;20475;-62
2023/07/23 09:31:37;;;;;;;2.50;2.30;;;23.60;50.30;;;;;;5039094;28;21321;-60
2023/07/23 09:34:03;;;;;;;3.40;2.27;;;23.50;50.80;;;;;;5035596;28;20460;-61
2023/07/23 09:36:29;;;;;;;4.77;2.70;;;23.40;51.90;;;;;;5037899;28;20460;-61
2023/07/23 09:39:00;;;;;;;3.40;2.10;;;23.20;50.50;;;;;;5033793;28;20557;-61
2023/07/23 09:41:37;;;;;;;4.03;2.03;;;23.20;50.30;;;;;;5042385;28;20425;-61
2023/07/23 09:44:09;;;;;;;2.00;1.83;;;23.20;50.80;;;;;;5035344;28;20453;-62
2023/07/23 09:46:36;;;;;;;5.13;2.70;;;23.30;50.70;;;;;;5033387;28;20438;-58
2023/07/23 09:49:02;;;;;;;2.40;2.20;;;23.40;50.40;;;;;;5046162;28;20453;-61
2023/07/23 09:51:28;;;;;;;5.03;2.87;;;23.40;50.50;;;;;;5037132;28;21255;-62
2023/07/23 09:53:53;;;;;;;5.40;2.77;;;23.40;49.40;;;;;;5032279;28;20625;-62
2023/07/23 09:56:22;;;;;;;2.43;2.20;;;23.30;49.50;;;;;;5040311;28;20268;-61
2023/07/23 09:58:50;;;;;;;2.63;2.10;;;23.40;48.90;;;;;;5034003;28;20210;-60
2023/07/23 10:01:18;;;;;;;8.73;2.30;;;23.40;49.00;;;;;;5036169;28;20430;-62
2023/07/23 10:03:45;;;;;;;3.77;2.50;;;23.40;49.40;;;;;;5040819;28;20422;-61
2023/07/23 10:06:12;;;;;;;2.90;2.47;;;23.50;48.60;;;;;;5035399;28;20425;-61
2023/07/23 10:08:42;;;;;;;3.50;2.70;;;23.50;49.00;;;;;;5032990;28;20949;-62
2023/07/23 10:11:09;;;;;;;4.03;2.30;;;23.40;49.00;;;;;;5041857;28;20441;-63
2023/07/23 10:13:36;;;;;;;2.60;2.27;;;23.40;49.20;;;;;;5038524;28;21456;-61
2023/07/23 10:16:05;;;;;;;2.83;2.40;;;23.40;48.90;;;;;;5033462;28;20867;-62
2023/07/23 10:18:32;;;;;;;5.33;2.80;;;23.40;48.60;;;;;;5035926;28;21079;-62
2023/07/23 10:20:58;;;;;;;3.20;2.37;;;23.40;48.90;;;;;;5029022;28;20445;-62
2023/07/23 10:23:24;;;;;;;2.33;2.13;;;23.40;49.30;;;;;;5032253;28;20488;-61
2023/07/23 10:26:20;;;;;;;3.20;2.40;;;23.40;49.30;;;;;;5028514;28;20523;-62
2023/07/23 10:28:45;;;;;;;4.10;2.83;;;23.50;49.10;;;;;;5036668;28;20334;-61
2023/07/23 10:31:29;;;;;;;3.47;2.77;;;23.60;48.80;;;;;;5032569;28;20528;-61
2023/07/23 10:33:55;;;;;;;3.83;2.63;;;23.80;48.40;;;;;;5033057;28;20184;-62
2023/07/23 10:36:23;;;;;;;5.33;3.67;;;23.90;47.50;;;;;;5041571;28;20433;-62
2023/07/23 10:39:15;;;;;;;4.73;3.70;;;23.90;48.00;;;;;;5032646;28;20470;-63
2023/07/23 10:41:49;;;;;;;7.57;3.40;;;24.00;48.90;;;;;;5033498;28;20442;-62
2023/07/23 10:44:28;;;;;;;9.13;3.63;;;24.10;48.10;;;;;;5032473;28;20430;-62
2023/07/23 10:46:56;;;;;;;5.70;3.37;;;24.20;47.70;;;;;;5029706;28;20861;-64
2023/07/23 10:49:29;;;;;;;4.70;3.20;;;24.40;46.90;;;;;;5037694;28;20441;-61
2023/07/23 10:52:10;;;;;;;7.50;3.30;;;24.60;46.90;;;;;;5038963;28;20460;-62
2023/07/23 10:54:37;;;;;;;4.27;3.50;;;24.80;46.20;;;;;;5035860;28;20433;-62
2023/07/23 10:57:05;;;;;;;6.50;4.07;;;24.90;45.80;;;;;;5040432;28;20493;-62
2023/07/23 10:59:31;;;;;;;6.37;3.83;;;24.90;45.10;;;;;;5034741;28;20446;-61
2023/07/23 11:01:57;;;;;;;6.03;3.97;;;24.90;45.20;;;;;;5030786;28;20441;-64
2023/07/23 11:04:26;;;;;;;9.50;4.40;;;24.90;45.40;;;;;;5036372;28;20434;-62
2023/07/23 11:07:06;;;;;;;6.90;4.50;;;25.00;44.70;;;;;;5037223;28;20581;-60
2023/07/23 11:09:37;;;;;;;12.27;5.17;;;25.10;44.00;;;;;;5025289;28;20971;-61
2023/07/23 11:12:05;;;;;;;6.67;4.73;;;25.00;44.20;;;;;;5038722;28;20465;-61
2023/07/23 11:14:32;;;;;;;9.40;5.30;;;24.90;43.80;;;;;;5031238;28;20789;-59
2023/07/23 11:17:03;;;;;;;7.07;4.30;;;24.80;44.00;;;;;;5030980;28;20417;-60
2023/07/23 11:19:31;;;;;;;7.73;4.43;;;24.80;44.50;;;;;;5037427;28;20429;-63
2023/07/23 11:21:58;;;;;;;6.93;4.10;;;24.70;44.40;;;;;;5040837;28;20437;-63
2023/07/23 11:24:26;;;;;;;8.77;4.90;;;24.70;44.90;;;;;;5038471;28;20442;-61
2023/07/23 11:26:52;;;;;;;9.80;5.20;;;24.80;44.10;;;;;;5044100;28;20430;-62
2023/07/23 11:29:18;;;;;;;9.80;5.07;;;24.90;44.30;;;;;;5039145;28;20436;-63
2023/07/23 11:31:45;;;;;;;7.97;4.87;;;24.90;44.90;;;;;;5042303;28;20453;-62
2023/07/23 11:34:12;;;;;;;8.20;5.03;;;25.10;44.30;;;;;;5036862;28;20437;-62
2023/07/23 11:36:38;;;;;;;7.43;4.40;;;25.20;44.00;;;;;;5041439;28;20433;-62
2023/07/23 11:39:05;;;;;;;8.20;5.00;;;25.20;43.50;;;;;;5040071;28;20464;-62
2023/07/23 11:41:41;;;;;;;8.83;5.10;;;25.30;43.60;;;;;;5032742;28;20182;-61
2023/07/23 11:44:09;;;;;;;12.23;5.70;;;25.50;44.50;;;;;;5039195;28;20427;-61
2023/07/23 11:46:39;;;;;;;9.40;5.70;;;25.70;43.50;;;;;;5038586;28;20743;-62
2023/07/23 11:49:06;;;;;;;7.60;5.27;;;25.90;42.20;;;;;;5036324;28;20456;-60
2023/07/23 11:51:33;;;;;;;10.13;5.47;;;26.00;42.30;;;;;;5034043;28;20573;-63
2023/07/23 11:54:00;;;;;;;7.53;5.23;;;26.00;42.30;;;;;;5038085;28;20461;-61
2023/07/23 11:56:26;;;;;;;9.60;6.13;;;25.90;42.40;;;;;;5039910;28;20422;-61
2023/07/23 11:58:52;;;;;;;9.10;5.33;;;25.90;43.00;;;;;;5041249;28;21121;-62
2023/07/23 12:01:18;;;;;;;9.50;5.63;;;25.90;42.90;;;;;;5042455;28;20679;-61
2023/07/23 12:03:45;;;;;;;8.07;5.20;;;25.80;42.10;;;;;;5037440;28;20195;-62
2023/07/23 12:06:14;;;;;;;9.07;5.80;;;25.70;42.70;;;;;;5039117;28;20167;-62
2023/07/23 12:08:45;;;;;;;6.73;5.40;;;25.60;43.50;;;;;;5041336;28;20447;-62
2023/07/23 12:11:13;;;;;;;8.70;5.60;;;25.50;43.60;;;;;;5044358;28;20433;-61
2023/07/23 12:13:49;;;;;;;13.80;4.93;;;25.40;43.60;;;;;;5034619;28;20440;-62
2023/07/23 12:16:35;;;;;;;11.20;5.30;;;25.30;43.80;;;;;;5041730;28;20503;-62
2023/07/23 12:19:03;;;;;;;13.10;6.70;;;25.20;43.20;;;;;;5045549;28;20440;-61
2023/07/23 12:21:29;;;;;;;11.67;6.30;;;25.20;43.30;;;;;;5043426;28;20432;-62
2023/07/23 12:23:54;;;;;;;11.33;5.53;;;25.10;42.90;;;;;;5038990;28;20521;-62
2023/07/23 12:26:20;;;;;;;8.73;6.00;;;25.10;43.60;;;;;;5035383;28;20179;-62
2023/07/23 12:28:45;;;;;;;10.03;6.77;;;25.10;43.20;;;;;;5038730;28;20198;-62
2023/07/23 12:31:11;;;;;;;10.67;6.20;;;25.00;42.40;;;;;;5038069;28;20236;-62
2023/07/23 12:33:36;;;;;;;13.23;6.33;;;24.90;42.50;;;;;;5046038;28;20170;-62
2023/07/23 12:36:03;;;;;;;9.93;6.13;;;24.90;42.50;;;;;;5037321;28;20219;-61
2023/07/23 12:38:28;;;;;;;9.07;5.73;;;24.90;42.20;;;;;;5036503;28;20269;-62
2023/07/23 12:40:54;;;;;;;9.60;5.87;;;24.80;42.40;;;;;;5038515;28;21076;-61
2023/07/23 12:43:20;;;;;;;10.43;5.90;;;24.80;43.30;;;;;;5035002;28;20198;-62